createdAt,value
2018-03-22T00:00:18.564Z,91.53
2018-03-22T00:01:28.273Z,91.62
2018-03-22T00:02:37.460Z,91.81
2018-03-22T00:03:47.162Z,91.43
2018-03-22T00:04:56.354Z,92.38
2018-03-22T00:06:06.310Z,92.29
2018-03-22T00:07:16.007Z,92.19
2018-03-22T00:08:24.934Z,92.76
2018-03-22T00:09:34.910Z,92.76
2018-03-22T00:10:44.612Z,93.32
2018-03-22T00:11:54.587Z,93.42
2018-03-22T00:13:04.288Z,93.61
2018-03-22T00:14:13.980Z,94.37
2018-03-22T00:15:23.731Z,95.21
2018-03-22T00:16:33.182Z,96.26
2018-03-22T00:17:42.622Z,96.54
2018-03-22T00:18:52.062Z,97.39
2018-03-22T00:20:02.020Z,97.87
2018-03-22T00:21:11.733Z,97.91
2018-03-22T00:22:21.435Z,98.77
2018-03-22T00:23:31.138Z,99.15
2018-03-22T00:24:40.576Z,98.96
2018-03-22T00:25:50.023Z,99.24
2018-03-22T00:26:58.942Z,99.85
2018-03-22T00:28:08.380Z,99.99
2018-03-22T00:29:18.096Z,99.99
2018-03-22T00:30:28.058Z,99.99
2018-03-22T00:31:37.251Z,99.99
2018-03-22T00:32:46.719Z,99.99
2018-03-22T00:33:56.719Z,99.99
2018-03-22T00:35:06.166Z,99.99
2018-03-22T00:36:15.870Z,99.99
2018-03-22T00:37:25.058Z,99.99
2018-03-22T00:38:35.020Z,99.99
2018-03-22T00:39:44.720Z,99.99
2018-03-22T00:40:54.152Z,99.99
2018-03-22T00:42:04.104Z,99.99
2018-03-22T00:43:13.812Z,99.99
2018-03-22T00:44:23.566Z,99.99
2018-03-22T00:45:33.273Z,99.99
2018-03-22T00:46:43.238Z,99.99
2018-03-22T00:47:53.227Z,99.99
2018-03-22T00:49:03.194Z,99.99
2018-03-22T00:50:13.176Z,99.99
2018-03-22T00:51:22.623Z,99.99
2018-03-22T00:52:32.066Z,99.99
2018-03-22T00:53:41.774Z,99.99
2018-03-22T00:54:51.231Z,99.99
2018-03-22T00:56:00.622Z,99.99
2018-03-22T00:57:10.319Z,99.99
2018-03-22T00:58:20.031Z,99.99
2018-03-22T00:59:30.050Z,99.99
2018-03-22T01:00:39.549Z,99.99
2018-03-22T01:01:48.996Z,99.99
2018-03-22T01:02:58.696Z,99.99
2018-03-22T01:04:08.394Z,99.99
2018-03-22T01:05:18.364Z,99.99
2018-03-22T01:06:27.997Z,99.99
2018-03-22T01:07:37.714Z,99.99
2018-03-22T01:08:47.417Z,99.99
2018-03-22T01:09:57.112Z,99.99
2018-03-22T01:11:06.815Z,99.99
2018-03-22T01:12:16.511Z,99.99
2018-03-22T01:13:26.230Z,99.99
2018-03-22T01:14:36.197Z,99.99
2018-03-22T01:15:46.171Z,99.99
2018-03-22T01:16:55.888Z,99.99
2018-03-22T01:18:05.065Z,99.99
2018-03-22T01:19:15.027Z,99.99
2018-03-22T01:20:25.043Z,99.99
2018-03-22T01:21:34.999Z,99.99
2018-03-22T01:22:44.976Z,99.99
2018-03-22T01:23:54.420Z,99.99
2018-03-22T01:25:04.384Z,99.99
2018-03-22T01:26:14.084Z,99.99
2018-03-22T01:27:24.041Z,99.99
2018-03-22T01:28:33.483Z,99.99
2018-03-22T01:29:43.178Z,99.99
2018-03-22T01:30:52.882Z,99.99
2018-03-22T01:32:02.842Z,99.99
2018-03-22T01:33:12.806Z,99.99
2018-03-22T01:34:22.265Z,99.99
2018-03-22T01:35:32.223Z,99.99
2018-03-22T01:36:41.932Z,99.99
2018-03-22T01:37:51.889Z,99.99
2018-03-22T01:39:01.079Z,99.99
2018-03-22T01:40:10.787Z,99.99
2018-03-22T01:41:20.755Z,99.99
2018-03-22T01:42:30.961Z,99.99
2018-03-22T01:43:40.452Z,99.99
2018-03-22T01:44:49.898Z,99.99
2018-03-22T01:45:59.858Z,99.99
2018-03-22T01:47:09.297Z,99.99
2018-03-22T01:48:19.270Z,99.99
2018-03-22T01:49:29.234Z,99.99
2018-03-22T01:50:39.207Z,99.99
2018-03-22T01:51:48.914Z,99.99
2018-03-22T01:52:58.362Z,99.99
2018-03-22T01:54:07.806Z,99.99
2018-03-22T01:55:17.247Z,99.99
2018-03-22T01:56:26.953Z,99.99
2018-03-22T01:57:36.911Z,99.99
2018-03-22T01:58:46.610Z,99.99
2018-03-22T01:59:56.563Z,99.99
2018-03-22T02:01:06.529Z,99.99
2018-03-22T02:02:16.255Z,99.99
2018-03-22T02:03:25.977Z,99.99
2018-03-22T02:04:35.670Z,99.99
2018-03-22T02:05:45.113Z,99.99
2018-03-22T02:06:54.814Z,99.99
2018-03-22T02:08:04.005Z,99.99
2018-03-22T02:09:13.703Z,99.99
2018-03-22T02:10:23.408Z,99.99
2018-03-22T02:11:33.362Z,99.99
2018-03-22T02:12:43.057Z,99.99
2018-03-22T02:13:52.755Z,99.99
2018-03-22T02:15:02.456Z,99.99
2018-03-22T02:16:11.901Z,99.99
2018-03-22T02:17:21.859Z,99.99
2018-03-22T02:18:31.556Z,99.99
2018-03-22T02:19:41.754Z,99.99
2018-03-22T02:20:51.703Z,99.99
2018-03-22T02:22:01.669Z,99.99
2018-03-22T02:23:11.629Z,99.99
2018-03-22T02:24:21.329Z,99.99
2018-03-22T02:25:31.037Z,99.99
2018-03-22T02:26:40.467Z,99.99
2018-03-22T02:27:50.186Z,99.99
2018-03-22T02:28:59.896Z,99.99
2018-03-22T02:30:10.119Z,99.99
2018-03-22T02:31:19.307Z,99.99
2018-03-22T02:32:29.274Z,99.99
2018-03-22T02:33:39.256Z,99.99
2018-03-22T02:34:48.704Z,99.99
2018-03-22T02:35:58.424Z,99.99
2018-03-22T02:37:08.124Z,99.99
2018-03-22T02:38:18.090Z,99.99
2018-03-22T02:39:27.810Z,99.99
2018-03-22T02:40:37.254Z,99.99
2018-03-22T02:41:46.962Z,99.99
2018-03-22T02:42:56.402Z,99.99
2018-03-22T02:44:05.847Z,99.99
2018-03-22T02:45:15.808Z,99.99
2018-03-22T02:46:25.247Z,99.99
2018-03-22T02:47:34.954Z,99.99
2018-03-22T02:48:44.907Z,99.99
2018-03-22T02:49:54.883Z,99.99
2018-03-22T02:51:04.866Z,99.99
2018-03-22T02:52:14.971Z,99.99
2018-03-22T02:53:24.669Z,99.99
2018-03-22T02:54:34.106Z,99.99
2018-03-22T02:55:44.078Z,99.99
2018-03-22T02:56:54.046Z,99.99
2018-03-22T02:58:04.029Z,99.99
2018-03-22T02:59:14.008Z,99.99
2018-03-22T03:00:23.997Z,99.99
2018-03-22T03:01:34.308Z,99.99
2018-03-22T03:02:43.707Z,99.99
2018-03-22T03:03:53.164Z,99.99
2018-03-22T03:05:02.867Z,99.99
2018-03-22T03:06:12.868Z,99.99
2018-03-22T03:07:22.571Z,99.99
2018-03-22T03:08:32.268Z,99.99
2018-03-22T03:09:42.266Z,99.99
2018-03-22T03:10:51.991Z,99.99
2018-03-22T03:12:01.962Z,99.99
2018-03-22T03:13:11.391Z,99.99
2018-03-22T03:14:21.093Z,99.99
2018-03-22T03:15:30.536Z,99.99
2018-03-22T03:16:40.488Z,99.99
2018-03-22T03:17:50.448Z,99.99
2018-03-22T03:19:00.137Z,99.99
2018-03-22T03:20:09.844Z,99.99
2018-03-22T03:21:19.532Z,99.99
2018-03-22T03:22:29.241Z,99.99
2018-03-22T03:23:38.944Z,99.99
2018-03-22T03:24:48.910Z,99.99
2018-03-22T03:25:58.874Z,99.99
2018-03-22T03:27:08.575Z,99.99
2018-03-22T03:28:18.269Z,99.99
2018-03-22T03:29:28.237Z,99.99
2018-03-22T03:30:37.678Z,99.99
2018-03-22T03:31:46.880Z,99.99
2018-03-22T03:32:56.890Z,99.99
2018-03-22T03:34:07.114Z,99.99
2018-03-22T03:35:16.304Z,99.99
2018-03-22T03:36:26.261Z,99.99
2018-03-22T03:37:35.694Z,99.99
2018-03-22T03:38:45.386Z,99.99
2018-03-22T03:39:55.079Z,99.99
2018-03-22T03:41:04.775Z,99.99
2018-03-22T03:42:14.472Z,99.99
2018-03-22T03:43:24.431Z,99.99
2018-03-22T03:44:34.379Z,99.99
2018-03-22T03:45:44.074Z,99.99
2018-03-22T03:46:53.775Z,99.99
2018-03-22T03:48:03.481Z,99.99
2018-03-22T03:49:12.670Z,99.99
2018-03-22T03:50:22.635Z,99.99
2018-03-22T03:51:32.335Z,99.99
2018-03-22T03:52:42.031Z,99.99
2018-03-22T03:53:52.009Z,99.99
2018-03-22T03:55:01.949Z,99.99
2018-03-22T03:56:11.663Z,99.99
2018-03-22T03:57:21.415Z,99.99
2018-03-22T03:58:30.595Z,99.99
2018-03-22T03:59:40.805Z,99.99
2018-03-22T04:00:50.505Z,99.99
2018-03-22T04:02:00.502Z,99.99
2018-03-22T04:03:10.209Z,99.99
2018-03-22T04:04:19.913Z,99.99
2018-03-22T04:05:29.858Z,99.99
2018-03-22T04:06:39.821Z,99.99
2018-03-22T04:07:49.270Z,99.99
2018-03-22T04:08:58.718Z,99.99
2018-03-22T04:10:08.441Z,99.99
2018-03-22T04:11:17.879Z,99.99
2018-03-22T04:12:27.576Z,99.99
2018-03-22T04:13:37.279Z,99.99
2018-03-22T04:14:47.244Z,99.99
2018-03-22T04:15:56.420Z,99.99
2018-03-22T04:17:06.368Z,99.99
2018-03-22T04:18:16.325Z,99.99
2018-03-22T04:19:26.306Z,99.99
2018-03-22T04:20:35.762Z,99.99
2018-03-22T04:21:45.190Z,99.99
2018-03-22T04:22:55.159Z,99.99
2018-03-22T04:24:04.865Z,99.99
2018-03-22T04:25:14.286Z,99.99
2018-03-22T04:26:24.256Z,99.99
2018-03-22T04:27:33.703Z,99.99
2018-03-22T04:28:43.666Z,99.99
2018-03-22T04:29:52.842Z,99.99
2018-03-22T04:31:02.542Z,99.99
2018-03-22T04:32:12.236Z,99.99
2018-03-22T04:33:22.196Z,99.99
2018-03-22T04:34:32.162Z,99.99
2018-03-22T04:35:41.863Z,99.99
2018-03-22T04:36:51.981Z,99.99
2018-03-22T04:38:01.945Z,99.99
2018-03-22T04:39:11.646Z,99.99
2018-03-22T04:40:21.604Z,99.99
2018-03-22T04:41:31.315Z,99.99
2018-03-22T04:42:41.012Z,99.99
2018-03-22T04:43:51.012Z,99.99
2018-03-22T04:45:00.981Z,99.99
2018-03-22T04:46:10.676Z,99.99
2018-03-22T04:47:20.635Z,99.99
2018-03-22T04:48:30.600Z,99.99
2018-03-22T04:49:40.025Z,99.99
2018-03-22T04:50:49.972Z,99.99
2018-03-22T04:51:59.937Z,99.99
2018-03-22T04:53:09.641Z,99.99
2018-03-22T04:54:19.330Z,99.99
2018-03-22T04:55:29.278Z,99.99
2018-03-22T04:56:38.982Z,99.99
2018-03-22T04:57:49.215Z,99.99
2018-03-22T04:58:59.173Z,99.99
2018-03-22T05:00:09.129Z,99.99
2018-03-22T05:01:19.078Z,99.99
2018-03-22T05:02:28.769Z,99.99
2018-03-22T05:03:39.024Z,99.99
2018-03-22T05:04:48.460Z,99.99
2018-03-22T05:05:58.154Z,99.99
2018-03-22T05:07:07.864Z,99.99
2018-03-22T05:08:17.827Z,99.99
2018-03-22T05:09:28.153Z,99.99
2018-03-22T05:10:38.109Z,99.99
2018-03-22T05:11:48.096Z,99.99
2018-03-22T05:12:57.786Z,99.99
2018-03-22T05:14:07.765Z,99.99
2018-03-22T05:15:17.772Z,99.99
2018-03-22T05:16:27.729Z,99.99
2018-03-22T05:17:37.691Z,99.99
2018-03-22T05:18:47.660Z,99.99
2018-03-22T05:19:57.617Z,99.99
2018-03-22T05:21:07.577Z,99.99
2018-03-22T05:22:17.563Z,99.99
2018-03-22T05:23:27.260Z,99.99
2018-03-22T05:24:36.981Z,99.99
2018-03-22T05:25:46.947Z,99.99
2018-03-22T05:26:56.397Z,99.99
2018-03-22T05:28:06.364Z,99.99
2018-03-22T05:29:16.064Z,99.99
2018-03-22T05:30:26.030Z,99.99
2018-03-22T05:31:35.728Z,99.99
2018-03-22T05:32:45.996Z,99.99
2018-03-22T05:33:55.957Z,99.99
2018-03-22T05:35:05.916Z,99.99
2018-03-22T05:36:15.882Z,99.99
2018-03-22T05:37:25.846Z,99.99
2018-03-22T05:38:35.811Z,99.99
2018-03-22T05:39:45.770Z,99.99
2018-03-22T05:40:55.851Z,99.99
2018-03-22T05:42:05.828Z,99.99
2018-03-22T05:43:15.016Z,99.99
2018-03-22T05:44:24.188Z,99.99
2018-03-22T05:45:34.163Z,99.99
2018-03-22T05:46:44.202Z,99.99
2018-03-22T05:47:53.890Z,99.99
2018-03-22T05:49:03.636Z,99.99
2018-03-22T05:50:13.078Z,99.99
2018-03-22T05:51:23.038Z,99.99
2018-03-22T05:52:32.480Z,99.99
2018-03-22T05:53:41.666Z,99.99
2018-03-22T05:54:51.379Z,99.99
2018-03-22T05:56:01.092Z,99.99
2018-03-22T05:57:10.796Z,99.99
2018-03-22T05:58:20.494Z,99.99
2018-03-22T05:59:30.193Z,99.99
2018-03-22T06:00:39.635Z,99.99
2018-03-22T06:01:49.333Z,99.99
2018-03-22T06:02:59.293Z,99.99
2018-03-22T06:04:09.333Z,99.99
2018-03-22T06:05:19.285Z,99.99
2018-03-22T06:06:29.060Z,99.99
2018-03-22T06:07:38.778Z,99.99
2018-03-22T06:08:48.487Z,99.99
2018-03-22T06:09:58.339Z,99.99
2018-03-22T06:11:07.264Z,99.99
2018-03-22T06:12:16.977Z,99.99
2018-03-22T06:13:26.689Z,99.99
2018-03-22T06:14:36.396Z,99.99
2018-03-22T06:15:46.081Z,99.99
2018-03-22T06:16:55.548Z,99.99
2018-03-22T06:18:05.035Z,99.99
2018-03-22T06:19:15.020Z,99.99
2018-03-22T06:20:24.453Z,99.99
2018-03-22T06:21:34.217Z,99.99
2018-03-22T06:22:43.659Z,99.99
2018-03-22T06:23:53.389Z,99.99
2018-03-22T06:25:03.363Z,99.99
2018-03-22T06:26:13.323Z,99.99
2018-03-22T06:27:23.293Z,99.99
2018-03-22T06:28:33.006Z,99.99
2018-03-22T06:29:42.712Z,99.99
2018-03-22T06:30:52.186Z,99.99
2018-03-22T06:32:01.893Z,99.99
2018-03-22T06:33:11.855Z,99.99
2018-03-22T06:34:21.808Z,99.99
2018-03-22T06:35:31.237Z,99.99
2018-03-22T06:36:41.224Z,99.99
2018-03-22T06:37:51.248Z,99.99
2018-03-22T06:39:00.970Z,99.99
2018-03-22T06:40:10.954Z,99.99
2018-03-22T06:41:20.413Z,99.99
2018-03-22T06:42:30.414Z,99.99
2018-03-22T06:43:40.123Z,99.99
2018-03-22T06:44:49.560Z,99.66
2018-03-22T06:45:59.023Z,99.99
2018-03-22T06:47:08.746Z,99.99
2018-03-22T06:48:18.458Z,99.95
2018-03-22T06:49:28.425Z,99.99
2018-03-22T06:50:38.498Z,99.99
2018-03-22T06:51:48.469Z,99.99
2018-03-22T06:52:57.913Z,99.95
2018-03-22T06:54:07.356Z,99.99
2018-03-22T06:55:17.117Z,99.66
2018-03-22T06:56:26.837Z,99.99
2018-03-22T06:57:36.833Z,99.99
2018-03-22T06:58:46.812Z,99.99
2018-03-22T06:59:56.793Z,99.99
2018-03-22T07:01:06.770Z,99.99
2018-03-22T07:02:16.475Z,99.99
2018-03-22T07:03:26.183Z,99.99
2018-03-22T07:04:36.142Z,99.99
2018-03-22T07:05:45.865Z,99.99
2018-03-22T07:06:55.635Z,99.99
2018-03-22T07:08:05.376Z,99.99
2018-03-22T07:09:15.083Z,99.99
2018-03-22T07:10:24.549Z,99.99
2018-03-22T07:11:34.537Z,99.99
2018-03-22T07:12:44.524Z,99.99
2018-03-22T07:13:54.519Z,99.99
2018-03-22T07:15:04.487Z,99.99
2018-03-22T07:16:13.950Z,99.99
2018-03-22T07:17:23.710Z,99.99
2018-03-22T07:18:33.440Z,99.99
2018-03-22T07:19:43.144Z,99.99
2018-03-22T07:20:52.384Z,99.99
2018-03-22T07:22:02.088Z,99.99
2018-03-22T07:23:12.061Z,99.99
2018-03-22T07:24:22.019Z,99.99
2018-03-22T07:25:31.515Z,99.99
2018-03-22T07:26:41.231Z,99.99
2018-03-22T07:27:50.957Z,99.99
2018-03-22T07:29:00.660Z,99.99
2018-03-22T07:30:10.431Z,99.99
2018-03-22T07:31:20.147Z,99.99
2018-03-22T07:32:30.120Z,99.99
2018-03-22T07:33:40.141Z,99.99
2018-03-22T07:34:49.603Z,99.99
2018-03-22T07:35:59.323Z,99.99
2018-03-22T07:37:09.296Z,99.99
2018-03-22T07:38:19.273Z,99.99
2018-03-22T07:39:29.243Z,99.99
2018-03-22T07:40:39.214Z,99.99
2018-03-22T07:41:48.922Z,99.99
2018-03-22T07:42:58.635Z,99.99
2018-03-22T07:44:08.108Z,99.99
2018-03-22T07:45:17.806Z,99.99
2018-03-22T07:46:27.788Z,99.99
2018-03-22T07:47:37.256Z,99.99
2018-03-22T07:48:47.490Z,99.99
2018-03-22T07:49:56.671Z,99.99
2018-03-22T07:51:06.630Z,99.99
2018-03-22T07:52:16.343Z,99.99
2018-03-22T07:53:25.799Z,99.99
2018-03-22T07:54:35.500Z,99.99
2018-03-22T07:55:45.203Z,99.99
2018-03-22T07:56:54.651Z,99.99
2018-03-22T07:58:04.352Z,99.99
2018-03-22T07:59:13.525Z,99.99
2018-03-22T08:00:23.505Z,99.99
2018-03-22T08:01:32.946Z,99.99
2018-03-22T08:02:42.402Z,99.99
2018-03-22T08:03:52.113Z,99.99
2018-03-22T08:05:01.858Z,99.99
2018-03-22T08:06:11.831Z,99.99
2018-03-22T08:07:21.791Z,99.99
2018-03-22T08:08:31.759Z,99.99
2018-03-22T08:09:41.518Z,99.99
2018-03-22T08:10:51.003Z,99.99
2018-03-22T08:12:00.717Z,99.99
2018-03-22T08:13:10.671Z,99.99
2018-03-22T08:14:20.413Z,99.99
2018-03-22T08:15:30.137Z,99.99
2018-03-22T08:16:39.909Z,99.99
2018-03-22T08:17:49.930Z,99.99
2018-03-22T08:18:59.651Z,99.99
2018-03-22T08:20:09.359Z,99.99
2018-03-22T08:21:19.352Z,99.99
2018-03-22T08:22:29.324Z,99.99
2018-03-22T08:23:39.304Z,99.99
2018-03-22T08:24:48.224Z,99.99
2018-03-22T08:25:57.958Z,99.99
2018-03-22T08:27:07.654Z,99.99
2018-03-22T08:28:17.678Z,99.99
2018-03-22T08:29:27.405Z,99.99
2018-03-22T08:30:37.111Z,99.99
2018-03-22T08:31:47.205Z,99.99
2018-03-22T08:32:56.925Z,99.99
2018-03-22T08:34:06.894Z,99.99
2018-03-22T08:35:16.916Z,99.99
2018-03-22T08:36:26.650Z,99.99
2018-03-22T08:37:36.105Z,99.99
2018-03-22T08:38:46.078Z,99.99
2018-03-22T08:39:56.058Z,99.99
2018-03-22T08:41:06.062Z,99.99
2018-03-22T08:42:15.872Z,99.99
2018-03-22T08:43:25.569Z,99.99
2018-03-22T08:44:35.038Z,99.99
2018-03-22T08:45:45.001Z,99.99
2018-03-22T08:46:54.501Z,99.99
2018-03-22T08:48:03.960Z,99.99
2018-03-22T08:49:13.938Z,99.99
2018-03-22T08:50:23.377Z,99.99
2018-03-22T08:51:33.102Z,99.99
2018-03-22T08:52:42.878Z,99.99
2018-03-22T08:53:52.373Z,99.99
2018-03-22T08:55:02.091Z,99.99
2018-03-22T08:56:12.087Z,99.99
2018-03-22T08:57:21.799Z,99.99
2018-03-22T08:58:31.780Z,99.99
2018-03-22T08:59:41.905Z,99.99
2018-03-22T09:00:51.357Z,99.99
2018-03-22T09:02:01.329Z,99.99
2018-03-22T09:03:11.314Z,99.99
2018-03-22T09:04:20.761Z,99.99
2018-03-22T09:05:30.228Z,99.99
2018-03-22T09:06:39.414Z,99.99
2018-03-22T09:07:49.130Z,99.99
2018-03-22T09:08:59.096Z,99.99
2018-03-22T09:10:08.839Z,99.99
2018-03-22T09:11:18.013Z,99.99
2018-03-22T09:12:27.476Z,99.99
2018-03-22T09:13:37.200Z,99.99
2018-03-22T09:14:46.701Z,99.99
2018-03-22T09:15:56.653Z,99.99
2018-03-22T09:17:06.134Z,99.99
2018-03-22T09:18:15.840Z,99.99
2018-03-22T09:19:25.295Z,99.99
2018-03-22T09:20:35.276Z,99.99
2018-03-22T09:21:45.255Z,99.99
2018-03-22T09:22:55.248Z,99.99
2018-03-22T09:24:05.243Z,99.99
2018-03-22T09:25:14.966Z,99.99
2018-03-22T09:26:24.684Z,99.99
2018-03-22T09:27:34.657Z,99.99
2018-03-22T09:28:44.916Z,99.99
2018-03-22T09:29:54.634Z,99.99
2018-03-22T09:31:04.640Z,99.99
2018-03-22T09:32:14.625Z,99.99
2018-03-22T09:33:24.606Z,99.99
2018-03-22T09:34:34.323Z,99.99
2018-03-22T09:35:43.786Z,99.99
2018-03-22T09:36:53.519Z,99.99
2018-03-22T09:38:03.507Z,99.99
2018-03-22T09:39:13.463Z,99.99
2018-03-22T09:40:23.167Z,99.99
2018-03-22T09:41:32.619Z,99.99
2018-03-22T09:42:42.344Z,99.99
2018-03-22T09:43:52.059Z,99.99
2018-03-22T09:45:01.772Z,99.99
2018-03-22T09:46:12.093Z,99.99
2018-03-22T09:47:21.804Z,99.99
2018-03-22T09:48:31.536Z,99.99
2018-03-22T09:49:41.272Z,99.99
2018-03-22T09:50:50.799Z,99.99
2018-03-22T09:52:00.507Z,99.99
2018-03-22T09:53:10.212Z,99.99
2018-03-22T09:54:20.206Z,99.99
2018-03-22T09:55:29.930Z,99.99
2018-03-22T09:56:39.744Z,99.99
2018-03-22T09:57:49.730Z,99.99
2018-03-22T09:58:59.701Z,99.99
2018-03-22T10:00:09.690Z,99.99
2018-03-22T10:01:19.667Z,99.99
2018-03-22T10:02:29.410Z,99.99
2018-03-22T10:03:39.424Z,99.99
2018-03-22T10:04:49.429Z,99.99
2018-03-22T10:05:59.408Z,99.99
2018-03-22T10:07:09.380Z,99.99
2018-03-22T10:08:19.341Z,99.99
2018-03-22T10:09:29.325Z,99.99
2018-03-22T10:10:39.034Z,99.99
2018-03-22T10:11:48.775Z,99.99
2018-03-22T10:12:58.759Z,99.99
2018-03-22T10:14:08.740Z,99.99
2018-03-22T10:15:18.703Z,99.99
2018-03-22T10:16:28.712Z,99.99
2018-03-22T10:17:38.431Z,99.99
2018-03-22T10:18:48.398Z,99.99
2018-03-22T10:19:58.119Z,99.99
2018-03-22T10:21:07.846Z,99.99
2018-03-22T10:22:17.541Z,99.99
2018-03-22T10:23:27.526Z,99.99
2018-03-22T10:24:37.232Z,99.99
2018-03-22T10:25:47.214Z,99.99
2018-03-22T10:26:56.952Z,99.99
2018-03-22T10:28:06.923Z,99.99
2018-03-22T10:29:16.889Z,99.99
2018-03-22T10:30:26.843Z,99.99
2018-03-22T10:31:36.873Z,99.99
2018-03-22T10:32:46.614Z,99.99
2018-03-22T10:33:56.596Z,99.99
2018-03-22T10:35:06.607Z,99.99
2018-03-22T10:36:16.351Z,99.99
2018-03-22T10:37:25.818Z,99.99
2018-03-22T10:38:35.005Z,99.99
2018-03-22T10:39:44.722Z,99.99
2018-03-22T10:40:54.446Z,99.99
2018-03-22T10:42:04.260Z,99.99
2018-03-22T10:43:14.258Z,99.99
2018-03-22T10:44:23.969Z,99.99
2018-03-22T10:45:33.975Z,99.99
2018-03-22T10:46:43.969Z,99.99
2018-03-22T10:47:54.151Z,99.99
2018-03-22T10:49:04.175Z,99.99
2018-03-22T10:50:13.921Z,99.99
2018-03-22T10:51:23.387Z,99.99
2018-03-22T10:52:33.108Z,99.99
2018-03-22T10:53:43.082Z,99.99
2018-03-22T10:54:52.796Z,99.99
2018-03-22T10:56:02.813Z,99.99
2018-03-22T10:57:12.273Z,99.99
2018-03-22T10:58:21.977Z,99.99
2018-03-22T10:59:32.007Z,99.99
2018-03-22T11:00:41.992Z,99.99
2018-03-22T11:01:51.956Z,99.99
2018-03-22T11:03:01.987Z,99.99
2018-03-22T11:04:11.734Z,99.99
2018-03-22T11:05:21.452Z,99.99
2018-03-22T11:06:30.895Z,99.99
2018-03-22T11:07:40.854Z,99.99
2018-03-22T11:08:50.816Z,99.99
2018-03-22T11:10:00.271Z,99.99
2018-03-22T11:11:10.268Z,99.99
2018-03-22T11:12:20.270Z,99.99
2018-03-22T11:13:30.011Z,99.99
2018-03-22T11:14:39.994Z,99.99
2018-03-22T11:15:49.729Z,99.99
2018-03-22T11:16:59.198Z,99.99
2018-03-22T11:18:08.914Z,99.99
2018-03-22T11:19:18.624Z,99.99
2018-03-22T11:20:28.598Z,99.99
2018-03-22T11:21:38.627Z,99.99
2018-03-22T11:22:48.069Z,99.99
2018-03-22T11:23:57.812Z,99.99
2018-03-22T11:25:07.007Z,99.99
2018-03-22T11:26:16.981Z,99.99
2018-03-22T11:27:26.444Z,99.99
2018-03-22T11:28:36.509Z,99.99
2018-03-22T11:29:46.499Z,99.99
2018-03-22T11:30:56.472Z,99.99
2018-03-22T11:32:06.484Z,99.99
2018-03-22T11:33:15.932Z,99.99
2018-03-22T11:34:26.045Z,99.99
2018-03-22T11:35:36.052Z,99.99
2018-03-22T11:36:46.052Z,99.99
2018-03-22T11:37:56.029Z,99.99
2018-03-22T11:39:06.009Z,99.99
2018-03-22T11:40:16.002Z,99.99
2018-03-22T11:41:25.601Z,99.99
2018-03-22T11:42:35.550Z,99.99
2018-03-22T11:43:45.523Z,99.99
2018-03-22T11:44:55.499Z,99.99
2018-03-22T11:46:05.491Z,99.99
2018-03-22T11:47:15.550Z,99.99
2018-03-22T11:48:25.517Z,99.99
2018-03-22T11:49:35.209Z,99.99
2018-03-22T11:50:45.253Z,99.99
2018-03-22T11:51:55.070Z,99.99
2018-03-22T11:53:05.081Z,99.99
2018-03-22T11:54:15.107Z,99.99
2018-03-22T11:55:24.832Z,99.99
2018-03-22T11:56:34.829Z,99.99
2018-03-22T11:57:44.785Z,99.99
2018-03-22T11:58:54.498Z,99.99
2018-03-22T12:00:04.482Z,99.99
2018-03-22T12:01:14.455Z,99.99
2018-03-22T12:02:24.762Z,99.99
2018-03-22T12:03:34.729Z,99.99
2018-03-22T12:04:44.509Z,99.99
2018-03-22T12:05:54.235Z,99.99
2018-03-22T12:07:04.227Z,99.99
2018-03-22T12:08:14.191Z,99.99
2018-03-22T12:09:24.160Z,99.99
2018-03-22T12:10:33.863Z,99.99
2018-03-22T12:11:43.877Z,99.99
2018-03-22T12:12:53.860Z,99.99
2018-03-22T12:14:03.825Z,99.99
2018-03-22T12:15:13.828Z,99.99
2018-03-22T12:16:23.791Z,99.99
2018-03-22T12:17:33.512Z,99.99
2018-03-22T12:18:43.498Z,99.99
2018-03-22T12:19:53.476Z,99.99
2018-03-22T12:21:03.448Z,99.99
2018-03-22T12:22:13.437Z,99.99
2018-03-22T12:23:23.195Z,99.99
2018-03-22T12:24:33.254Z,99.99
2018-03-22T12:25:43.273Z,99.99
2018-03-22T12:26:53.269Z,99.99
2018-03-22T12:28:02.982Z,99.99
2018-03-22T12:29:12.708Z,99.99
2018-03-22T12:30:22.453Z,99.99
2018-03-22T12:31:32.443Z,99.99
2018-03-22T12:32:42.433Z,99.99
2018-03-22T12:33:52.422Z,99.99
2018-03-22T12:35:02.385Z,99.99
2018-03-22T12:36:12.094Z,99.99
2018-03-22T12:37:21.541Z,99.99
2018-03-22T12:38:31.512Z,99.99
2018-03-22T12:39:41.483Z,99.99
2018-03-22T12:40:50.941Z,99.99
2018-03-22T12:42:00.693Z,99.99
2018-03-22T12:43:10.447Z,99.99
2018-03-22T12:44:20.345Z,99.99
2018-03-22T12:45:30.305Z,99.99
2018-03-22T12:46:40.281Z,99.99
2018-03-22T12:47:50.054Z,99.99
2018-03-22T12:48:59.757Z,99.99
2018-03-22T12:50:09.761Z,99.99
2018-03-22T12:51:19.855Z,99.99
2018-03-22T12:52:29.826Z,99.99
2018-03-22T12:53:39.825Z,99.99
2018-03-22T12:54:49.283Z,99.99
2018-03-22T12:55:59.267Z,99.99
2018-03-22T12:57:08.713Z,99.99
2018-03-22T12:58:18.425Z,99.99
2018-03-22T12:59:28.414Z,99.99
2018-03-22T13:00:38.431Z,99.99
2018-03-22T13:01:48.398Z,99.99
2018-03-22T13:02:57.880Z,99.99
2018-03-22T13:04:07.578Z,99.99
2018-03-22T13:05:17.040Z,99.99
2018-03-22T13:06:26.485Z,99.99
2018-03-22T13:07:35.937Z,99.99
2018-03-22T13:08:45.941Z,99.99
2018-03-22T13:09:55.634Z,99.99
2018-03-22T13:11:05.622Z,99.99
2018-03-22T13:12:15.333Z,99.99
2018-03-22T13:13:25.296Z,99.99
2018-03-22T13:14:35.021Z,99.99
2018-03-22T13:15:44.989Z,99.99
2018-03-22T13:16:54.973Z,99.99
2018-03-22T13:18:04.978Z,99.99
2018-03-22T13:19:14.716Z,99.99
2018-03-22T13:20:24.686Z,99.99
2018-03-22T13:21:34.408Z,99.99
2018-03-22T13:22:44.380Z,99.99
2018-03-22T13:23:54.130Z,99.99
2018-03-22T13:25:04.112Z,99.99
2018-03-22T13:26:14.132Z,99.99
2018-03-22T13:27:23.902Z,99.99
2018-03-22T13:28:33.619Z,99.99
2018-03-22T13:29:43.804Z,99.99
2018-03-22T13:30:53.561Z,99.99
2018-03-22T13:32:03.277Z,99.99
2018-03-22T13:33:13.293Z,99.99
2018-03-22T13:34:23.052Z,99.99
2018-03-22T13:35:32.235Z,99.99
2018-03-22T13:36:42.228Z,99.99
2018-03-22T13:37:52.034Z,99.99
2018-03-22T13:39:01.734Z,99.99
2018-03-22T13:40:11.204Z,99.99
2018-03-22T13:41:20.915Z,99.99
2018-03-22T13:42:30.928Z,99.99
2018-03-22T13:43:40.903Z,99.99
2018-03-22T13:44:50.914Z,99.99
2018-03-22T13:46:00.620Z,99.99
2018-03-22T13:47:10.375Z,99.99
2018-03-22T13:48:20.358Z,99.99
2018-03-22T13:49:29.858Z,99.99
2018-03-22T13:50:39.572Z,99.99
2018-03-22T13:51:49.532Z,99.99
2018-03-22T13:52:59.511Z,99.99
2018-03-22T13:54:09.475Z,99.99
2018-03-22T13:55:19.474Z,99.99
2018-03-22T13:56:29.185Z,99.66
2018-03-22T13:57:38.922Z,99.57
2018-03-22T13:58:48.638Z,98.82
2018-03-22T13:59:58.350Z,98.34
2018-03-22T14:01:08.071Z,99.05
2018-03-22T14:02:17.524Z,98.25
2018-03-22T14:03:27.252Z,98.25
2018-03-22T14:04:37.254Z,98.2
2018-03-22T14:05:47.222Z,98.2
2018-03-22T14:06:56.682Z,97.96
2018-03-22T14:08:06.132Z,97.96
2018-03-22T14:09:16.106Z,97.63
2018-03-22T14:10:26.103Z,97.54
2018-03-22T14:11:35.833Z,97.82
2018-03-22T14:12:45.897Z,97.63
2018-03-22T14:13:55.861Z,97.92
2018-03-22T14:15:05.861Z,97.35
2018-03-22T14:16:15.314Z,97.73
2018-03-22T14:17:25.018Z,96.97
2018-03-22T14:18:34.736Z,96.78
2018-03-22T14:19:44.438Z,96.88
2018-03-22T14:20:54.399Z,96.69
2018-03-22T14:22:04.136Z,96.31
2018-03-22T14:23:14.106Z,96.02
2018-03-22T14:24:24.067Z,95.64
2018-03-22T14:25:34.042Z,95.93
2018-03-22T14:26:44.020Z,95.93
2018-03-22T14:27:53.739Z,95.45
2018-03-22T14:29:03.722Z,95.07
2018-03-22T14:30:13.689Z,94.98
2018-03-22T14:31:23.148Z,94.89
2018-03-22T14:32:32.861Z,95.17
2018-03-22T14:33:42.822Z,94.89
2018-03-22T14:34:52.790Z,94.6
2018-03-22T14:36:02.506Z,94.7
2018-03-22T14:37:12.521Z,94.98
2018-03-22T14:38:22.278Z,94.7
2018-03-22T14:39:32.262Z,94.32
2018-03-22T14:40:41.704Z,94.13
2018-03-22T14:41:51.421Z,93.84
2018-03-22T14:43:01.151Z,93.94
2018-03-22T14:44:11.368Z,94.23
2018-03-22T14:45:21.088Z,94.32
2018-03-22T14:46:30.780Z,94.6
2018-03-22T14:47:40.775Z,93.84
2018-03-22T14:48:50.779Z,94.23
2018-03-22T14:50:00.770Z,93.94
2018-03-22T14:51:10.491Z,93.37
2018-03-22T14:52:20.490Z,92.99
2018-03-22T14:53:30.597Z,93.08
2018-03-22T14:54:40.568Z,93.46
2018-03-22T14:55:50.292Z,93.27
2018-03-22T14:57:00.263Z,93.46
2018-03-22T14:58:10.245Z,93.46